createdAt,value
2022-12-25T00:00:05.025Z,6.37
2022-12-25T00:02:31.678Z,4.57
2022-12-25T00:04:58.258Z,6.50
2022-12-25T00:07:24.880Z,4.03
2022-12-25T00:09:52.754Z,6.00
2022-12-25T00:12:19.316Z,4.57
2022-12-25T00:14:45.947Z,6.23
2022-12-25T00:17:12.484Z,6.23
2022-12-25T00:19:38.992Z,5.43
2022-12-25T00:22:05.532Z,8.90
2022-12-25T00:24:32.046Z,7.77
2022-12-25T00:26:59.921Z,8.03
2022-12-25T00:29:26.408Z,7.30
2022-12-25T00:31:52.988Z,6.67
2022-12-25T00:34:19.577Z,7.80
2022-12-25T00:36:46.104Z,7.97
2022-12-25T00:39:12.620Z,5.73
2022-12-25T00:41:39.186Z,6.27
2022-12-25T00:44:07.789Z,6.50
2022-12-25T00:46:34.402Z,6.07
2022-12-25T00:49:01.207Z,6.67
2022-12-25T00:51:27.778Z,6.63
2022-12-25T00:53:54.296Z,5.10
2022-12-25T00:56:20.821Z,5.40
2022-12-25T00:58:47.339Z,6.50
2022-12-25T01:01:15.411Z,5.53
2022-12-25T01:03:42.021Z,8.10
2022-12-25T01:06:08.935Z,7.40
2022-12-25T01:08:37.829Z,5.20
2022-12-25T01:11:06.647Z,6.97
2022-12-25T01:13:35.251Z,5.37
2022-12-25T01:16:05.980Z,5.73
2022-12-25T01:18:34.064Z,5.73
2022-12-25T01:21:05.939Z,5.63
2022-12-25T01:23:32.491Z,6.67
2022-12-25T01:26:03.433Z,6.83
2022-12-25T01:28:29.977Z,6.90
2022-12-25T01:30:56.486Z,5.97
2022-12-25T01:33:23.030Z,5.23
2022-12-25T01:35:50.899Z,5.47
2022-12-25T01:38:17.420Z,5.13
2022-12-25T01:40:43.989Z,8.37
2022-12-25T01:43:22.826Z,7.57
2022-12-25T01:45:49.734Z,5.80
2022-12-25T01:48:19.875Z,6.47
2022-12-25T01:50:48.870Z,5.70
2022-12-25T01:53:16.858Z,5.17
2022-12-25T01:55:44.517Z,4.60
2022-12-25T01:58:11.297Z,9.17
2022-12-25T02:00:37.891Z,4.77
2022-12-25T02:03:05.421Z,8.17
2022-12-25T02:05:34.310Z,5.33
2022-12-25T02:08:04.163Z,3.43
2022-12-25T02:10:32.052Z,6.03
2022-12-25T02:12:59.327Z,5.67
2022-12-25T02:15:33.811Z,5.53
2022-12-25T02:18:07.117Z,5.73
2022-12-25T02:20:43.541Z,6.00
2022-12-25T02:23:48.638Z,6.93
2022-12-25T02:26:27.763Z,4.70
2022-12-25T02:29:00.694Z,5.90
2022-12-25T02:31:32.957Z,7.03
2022-12-25T02:34:15.325Z,6.07
2022-12-25T02:36:47.446Z,6.67
2022-12-25T02:39:20.709Z,6.00
2022-12-25T02:41:50.748Z,6.27
2022-12-25T02:44:22.277Z,6.63
2022-12-25T02:46:49.408Z,6.77
2022-12-25T02:49:19.529Z,6.20
2022-12-25T02:51:49.805Z,7.07
2022-12-25T02:54:19.496Z,6.13
2022-12-25T02:56:48.895Z,5.30
2022-12-25T02:59:19.593Z,5.20
2022-12-25T03:01:46.631Z,5.07
2022-12-25T03:04:17.360Z,6.03
2022-12-25T03:06:58.253Z,5.60
2022-12-25T03:09:27.851Z,6.10
2022-12-25T03:12:00.906Z,5.77
2022-12-25T03:14:29.105Z,8.33
2022-12-25T03:16:58.779Z,5.40
2022-12-25T03:19:30.001Z,4.73
2022-12-25T03:21:57.218Z,7.07
2022-12-25T03:24:23.731Z,5.17
2022-12-25T03:26:50.285Z,7.73
2022-12-25T03:29:16.800Z,4.93
2022-12-25T03:31:53.734Z,6.17
2022-12-25T03:34:30.339Z,8.37
2022-12-25T03:37:07.313Z,5.40
2022-12-25T03:39:38.915Z,4.23
2022-12-25T03:42:07.028Z,5.50
2022-12-25T03:44:39.484Z,3.87
2022-12-25T03:47:16.358Z,5.23
2022-12-25T03:49:49.156Z,4.53
2022-12-25T03:52:19.171Z,4.80
2022-12-25T03:54:47.287Z,6.27
2022-12-25T03:57:14.509Z,5.17
2022-12-25T03:59:40.994Z,6.90
2022-12-25T04:02:09.877Z,4.00
2022-12-25T04:04:36.933Z,4.63
2022-12-25T04:07:03.459Z,3.93
2022-12-25T04:09:29.979Z,3.07
2022-12-25T04:12:02.225Z,4.20
2022-12-25T04:14:29.517Z,2.87
2022-12-25T04:16:56.024Z,4.57
2022-12-25T04:19:23.879Z,4.13
2022-12-25T04:21:50.391Z,3.60
2022-12-25T04:24:16.936Z,3.73
2022-12-25T04:26:43.461Z,2.37
2022-12-25T04:29:09.942Z,3.23
2022-12-25T04:31:36.526Z,4.17
2022-12-25T04:34:03.089Z,3.07
2022-12-25T04:36:31.031Z,4.20
2022-12-25T04:38:57.592Z,3.53
2022-12-25T04:41:24.126Z,4.77
2022-12-25T04:43:50.620Z,2.90
2022-12-25T04:46:17.175Z,4.27
2022-12-25T04:48:43.749Z,2.93
2022-12-25T04:51:15.110Z,3.87
2022-12-25T04:53:43.803Z,4.07
2022-12-25T04:56:10.492Z,5.83
2022-12-25T04:58:37.799Z,3.20
2022-12-25T05:01:04.932Z,2.87
2022-12-25T05:03:32.008Z,3.93
2022-12-25T05:05:59.030Z,3.30
2022-12-25T05:08:25.796Z,3.87
2022-12-25T05:10:53.648Z,5.93
2022-12-25T05:13:20.166Z,4.10
2022-12-25T05:15:46.786Z,4.83
2022-12-25T05:18:13.605Z,4.80
2022-12-25T05:20:40.630Z,3.73
2022-12-25T05:23:07.367Z,3.80
2022-12-25T05:25:33.876Z,4.70
2022-12-25T05:28:01.732Z,5.80
2022-12-25T05:30:28.208Z,4.70
2022-12-25T05:32:54.739Z,6.07
2022-12-25T05:35:21.288Z,3.90
2022-12-25T05:37:47.839Z,3.50
2022-12-25T05:40:14.693Z,2.40
2022-12-25T05:42:41.173Z,3.27
2022-12-25T05:45:10.634Z,4.43
2022-12-25T05:47:37.120Z,3.47
2022-12-25T05:50:03.967Z,3.93
2022-12-25T05:52:31.399Z,3.67
2022-12-25T05:54:57.913Z,4.47
2022-12-25T05:57:24.629Z,4.03
2022-12-25T05:59:51.566Z,6.17
2022-12-25T06:02:19.564Z,2.97
2022-12-25T06:04:46.197Z,3.50
2022-12-25T06:07:12.727Z,3.60
2022-12-25T06:09:39.361Z,2.60
2022-12-25T06:12:06.015Z,3.67
2022-12-25T06:14:32.662Z,4.40
2022-12-25T06:16:59.243Z,4.00
2022-12-25T06:19:27.150Z,3.27
2022-12-25T06:21:54.644Z,3.83
2022-12-25T06:24:21.725Z,4.53
2022-12-25T06:26:48.421Z,3.03
2022-12-25T06:29:14.929Z,4.20
2022-12-25T06:31:41.606Z,5.17
2022-12-25T06:34:08.427Z,3.87
2022-12-25T06:36:37.589Z,3.13
2022-12-25T06:39:04.487Z,4.30
2022-12-25T06:41:31.239Z,5.07
2022-12-25T06:43:59.452Z,4.63
2022-12-25T06:46:27.367Z,4.53
2022-12-25T06:48:54.142Z,3.50
2022-12-25T06:51:23.067Z,4.40
2022-12-25T06:53:51.896Z,5.27
2022-12-25T06:56:20.528Z,4.37
2022-12-25T06:58:49.112Z,4.60
2022-12-25T07:01:19.680Z,4.13
2022-12-25T07:03:48.072Z,5.23
2022-12-25T07:06:14.545Z,4.47
2022-12-25T07:08:41.071Z,5.00
2022-12-25T07:11:08.994Z,4.27
2022-12-25T07:13:35.547Z,5.70
2022-12-25T07:16:04.353Z,5.13
2022-12-25T07:18:32.386Z,4.37
2022-12-25T07:20:58.880Z,5.13
2022-12-25T07:23:25.828Z,3.20
2022-12-25T07:25:55.518Z,5.07
2022-12-25T07:28:23.524Z,4.33
2022-12-25T07:30:50.290Z,4.83
2022-12-25T07:33:17.124Z,4.77
2022-12-25T07:35:43.939Z,5.80
2022-12-25T07:38:10.765Z,6.17
2022-12-25T07:40:37.511Z,3.30
2022-12-25T07:43:04.118Z,3.63
2022-12-25T07:45:32.061Z,3.47
2022-12-25T07:48:04.398Z,6.43
2022-12-25T07:50:31.906Z,4.30
2022-12-25T07:52:58.440Z,4.43
2022-12-25T07:55:25.066Z,4.50
2022-12-25T07:57:51.692Z,4.43
2022-12-25T08:00:19.163Z,4.83
2022-12-25T08:02:49.321Z,2.60
2022-12-25T08:05:16.322Z,3.13
2022-12-25T08:07:42.881Z,3.43
2022-12-25T08:10:09.955Z,3.57
2022-12-25T08:12:36.460Z,3.93
2022-12-25T08:15:03.203Z,4.77
2022-12-25T08:17:29.730Z,4.60
2022-12-25T08:19:57.597Z,3.27
2022-12-25T08:22:24.155Z,3.30
2022-12-25T08:24:50.798Z,4.67
2022-12-25T08:27:17.310Z,3.03
2022-12-25T08:29:43.914Z,2.57
2022-12-25T08:32:10.478Z,2.83
2022-12-25T08:34:37.661Z,2.17
2022-12-25T08:37:05.518Z,1.47
2022-12-25T08:39:32.022Z,2.57
2022-12-25T08:41:58.558Z,2.93
2022-12-25T08:44:25.070Z,1.73
2022-12-25T08:46:51.570Z,2.63
2022-12-25T08:49:18.379Z,2.53
2022-12-25T08:51:45.073Z,2.83
2022-12-25T08:54:12.944Z,2.80
2022-12-25T08:56:39.504Z,2.60
2022-12-25T08:59:06.096Z,3.37
2022-12-25T09:01:32.751Z,3.50
2022-12-25T09:03:59.278Z,3.53
2022-12-25T09:06:25.783Z,3.07
2022-12-25T09:08:52.327Z,3.30
2022-12-25T09:11:20.801Z,3.17
2022-12-25T09:13:47.442Z,2.73
2022-12-25T09:16:16.318Z,2.57
2022-12-25T09:18:42.862Z,2.30
2022-12-25T09:21:11.611Z,3.00
2022-12-25T09:23:38.219Z,2.87
2022-12-25T09:26:07.023Z,2.97
2022-12-25T09:28:35.129Z,3.80
2022-12-25T09:31:02.527Z,4.17
2022-12-25T09:33:29.138Z,3.17
2022-12-25T09:35:57.033Z,2.57
2022-12-25T09:38:23.954Z,2.33
2022-12-25T09:40:59.623Z,4.77
2022-12-25T09:43:28.240Z,5.63
2022-12-25T09:45:57.638Z,6.80
2022-12-25T09:48:25.203Z,5.10
2022-12-25T09:50:56.278Z,4.30
2022-12-25T09:53:25.325Z,4.10
2022-12-25T09:56:01.395Z,4.37
2022-12-25T09:58:29.698Z,4.03
2022-12-25T10:01:05.396Z,3.47
2022-12-25T10:03:45.087Z,3.50
2022-12-25T10:06:17.882Z,4.87
2022-12-25T10:09:17.290Z,5.23
2022-12-25T10:12:00.468Z,5.83
2022-12-25T10:14:34.078Z,5.10
2022-12-25T10:17:16.521Z,4.60
2022-12-25T10:19:48.785Z,3.93
2022-12-25T10:22:20.312Z,4.00
2022-12-25T10:24:49.666Z,5.33
2022-12-25T10:27:19.180Z,4.70
2022-12-25T10:29:52.167Z,4.47
2022-12-25T10:32:20.093Z,4.10
2022-12-25T10:34:46.727Z,3.50
2022-12-25T10:37:13.333Z,4.63
2022-12-25T10:39:46.037Z,3.63
2022-12-25T10:42:30.896Z,3.60
2022-12-25T10:44:59.343Z,3.73
2022-12-25T10:47:30.851Z,2.20
2022-12-25T10:49:57.911Z,2.63
2022-12-25T10:52:26.533Z,2.50
2022-12-25T10:54:53.644Z,1.77
2022-12-25T10:57:22.003Z,1.73
2022-12-25T10:59:50.229Z,1.50
2022-12-25T11:02:21.800Z,1.60
2022-12-25T11:04:51.187Z,1.73
2022-12-25T11:07:23.671Z,1.93
2022-12-25T11:09:51.574Z,1.60
2022-12-25T11:12:19.606Z,1.90
2022-12-25T11:14:53.803Z,2.00
2022-12-25T11:17:23.744Z,2.10
2022-12-25T11:19:54.651Z,3.47
2022-12-25T11:22:21.287Z,3.30
2022-12-25T11:24:47.855Z,3.40
2022-12-25T11:27:28.567Z,2.83
2022-12-25T11:29:58.435Z,2.20
2022-12-25T11:32:43.362Z,2.43
2022-12-25T11:35:14.046Z,2.13
2022-12-25T11:37:43.393Z,3.07
2022-12-25T11:40:14.808Z,3.80
2022-12-25T11:42:45.526Z,3.77
2022-12-25T11:45:15.441Z,4.70
2022-12-25T11:47:45.895Z,4.63
2022-12-25T11:50:22.584Z,4.10
2022-12-25T11:52:50.309Z,4.17
2022-12-25T11:55:21.746Z,3.00
2022-12-25T11:57:56.678Z,2.60
2022-12-25T12:00:23.941Z,2.03
2022-12-25T12:02:56.220Z,2.20
2022-12-25T12:05:26.534Z,3.63
2022-12-25T12:07:57.870Z,3.67
2022-12-25T12:10:32.585Z,4.97
2022-12-25T12:13:13.900Z,2.90
2022-12-25T12:15:43.412Z,3.63
2022-12-25T12:18:20.375Z,4.87
2022-12-25T12:21:00.419Z,4.60
2022-12-25T12:23:28.583Z,3.87
2022-12-25T12:25:56.345Z,4.93
2022-12-25T12:28:25.773Z,3.07
2022-12-25T12:31:01.885Z,4.37
2022-12-25T12:33:33.269Z,3.37
2022-12-25T12:36:03.311Z,2.80
2022-12-25T12:38:31.579Z,2.50
2022-12-25T12:41:00.485Z,3.80
2022-12-25T12:43:35.819Z,2.47
2022-12-25T12:46:07.963Z,4.33
2022-12-25T12:48:40.538Z,2.47
2022-12-25T12:51:10.371Z,2.40
2022-12-25T12:53:38.554Z,2.57
2022-12-25T12:56:14.191Z,2.77
2022-12-25T12:58:44.050Z,4.10
2022-12-25T13:01:17.219Z,2.57
2022-12-25T13:03:59.731Z,4.40
2022-12-25T13:06:34.773Z,2.90
2022-12-25T13:09:10.699Z,2.60
2022-12-25T13:11:41.383Z,2.33
2022-12-25T13:14:15.554Z,2.90
2022-12-25T13:16:44.660Z,2.77
2022-12-25T13:19:15.139Z,2.57
2022-12-25T13:21:52.711Z,2.87
2022-12-25T13:24:22.064Z,3.00
2022-12-25T13:26:48.630Z,3.07
2022-12-25T13:29:34.378Z,2.43
2022-12-25T13:32:03.712Z,2.57
2022-12-25T13:34:32.532Z,2.63
2022-12-25T13:37:07.682Z,2.00
2022-12-25T13:39:35.805Z,2.03
2022-12-25T13:42:05.950Z,2.60
2022-12-25T13:44:42.144Z,2.03
2022-12-25T13:47:16.798Z,2.23
2022-12-25T13:49:43.340Z,1.73
2022-12-25T13:52:12.938Z,1.47
2022-12-25T13:54:39.668Z,1.40
2022-12-25T13:57:11.276Z,1.40
2022-12-25T13:59:38.190Z,1.90
2022-12-25T14:02:12.103Z,2.20
2022-12-25T14:04:44.104Z,1.97
2022-12-25T14:07:12.208Z,2.10
2022-12-25T14:09:39.561Z,2.43
2022-12-25T14:12:07.804Z,2.77
2022-12-25T14:14:36.118Z,2.23
2022-12-25T14:17:02.954Z,2.33
2022-12-25T14:19:30.530Z,2.33
2022-12-25T14:22:01.614Z,2.67
2022-12-25T14:24:31.229Z,2.10
2022-12-25T14:27:00.001Z,2.27
2022-12-25T14:29:32.333Z,2.43
2022-12-25T14:31:59.187Z,2.43
2022-12-25T14:34:27.468Z,2.20
2022-12-25T14:36:54.344Z,2.83
2022-12-25T14:39:27.480Z,2.73
2022-12-25T14:41:55.425Z,2.53
2022-12-25T14:44:30.914Z,2.80
2022-12-25T14:47:04.599Z,2.37
2022-12-25T14:49:31.882Z,2.83
2022-12-25T14:51:58.688Z,2.10
2022-12-25T14:54:26.515Z,1.90
2022-12-25T14:56:55.048Z,2.07
2022-12-25T14:59:26.728Z,3.10
2022-12-25T15:01:56.035Z,3.53
2022-12-25T15:04:23.061Z,3.60
2022-12-25T15:06:54.735Z,4.10
2022-12-25T15:09:22.301Z,3.70
2022-12-25T15:11:49.138Z,2.63
2022-12-25T15:14:17.476Z,2.83
2022-12-25T15:16:46.762Z,2.67
2022-12-25T15:19:23.388Z,3.13
2022-12-25T15:21:51.963Z,4.10
2022-12-25T15:24:18.529Z,4.10
2022-12-25T15:26:45.082Z,5.03
2022-12-25T15:29:11.628Z,5.37
2022-12-25T15:31:40.063Z,5.77
2022-12-25T15:34:20.151Z,4.63
2022-12-25T15:36:46.714Z,3.47
2022-12-25T15:39:13.280Z,4.07
2022-12-25T15:41:40.607Z,4.53
2022-12-25T15:44:07.338Z,3.93
2022-12-25T15:46:34.767Z,2.97
2022-12-25T15:49:02.724Z,3.33
2022-12-25T15:51:29.370Z,3.23
2022-12-25T15:53:55.951Z,2.50
2022-12-25T15:56:23.440Z,2.83
2022-12-25T15:58:49.975Z,3.10
2022-12-25T16:01:17.825Z,3.23
2022-12-25T16:03:44.773Z,3.17
2022-12-25T16:06:13.939Z,2.30
2022-12-25T16:08:40.678Z,3.73
2022-12-25T16:11:07.820Z,5.90
2022-12-25T16:13:35.054Z,4.63
2022-12-25T16:16:02.004Z,4.17
2022-12-25T16:18:28.975Z,3.13
2022-12-25T16:20:56.497Z,2.90
2022-12-25T16:23:24.564Z,2.67
2022-12-25T16:25:51.120Z,2.37
2022-12-25T16:28:17.637Z,3.13
2022-12-25T16:30:44.347Z,2.87
2022-12-25T16:33:11.460Z,3.20
2022-12-25T16:35:38.187Z,3.10
2022-12-25T16:38:04.718Z,2.67
2022-12-25T16:40:33.029Z,2.50
2022-12-25T16:42:59.822Z,2.83
2022-12-25T16:45:26.369Z,2.07
2022-12-25T16:47:52.878Z,2.87
2022-12-25T16:50:19.491Z,3.37
2022-12-25T16:52:46.013Z,4.23
2022-12-25T16:55:12.575Z,3.40
2022-12-25T16:57:40.453Z,3.90
2022-12-25T17:00:08.317Z,4.40
2022-12-25T17:02:35.027Z,5.43
2022-12-25T17:05:01.732Z,8.33
2022-12-25T17:07:28.275Z,6.10
2022-12-25T17:09:54.832Z,5.00
2022-12-25T17:12:21.337Z,4.73
2022-12-25T17:14:49.206Z,4.77
2022-12-25T17:17:15.746Z,3.70
2022-12-25T17:19:42.264Z,3.17
2022-12-25T17:22:08.831Z,3.60
2022-12-25T17:24:36.565Z,4.20
2022-12-25T17:27:03.777Z,3.70
2022-12-25T17:29:30.473Z,3.57
2022-12-25T17:31:58.514Z,3.10
2022-12-25T17:34:25.135Z,3.20
2022-12-25T17:36:52.959Z,2.80
2022-12-25T17:39:19.609Z,4.90
2022-12-25T17:41:46.155Z,3.90
2022-12-25T17:44:12.881Z,4.83
2022-12-25T17:46:39.461Z,3.33
2022-12-25T17:49:07.432Z,3.00
2022-12-25T17:51:33.962Z,2.70
2022-12-25T17:54:01.759Z,4.10
2022-12-25T17:56:28.740Z,3.37
2022-12-25T17:58:56.927Z,2.97
2022-12-25T18:01:24.534Z,3.00
2022-12-25T18:03:51.503Z,2.60
2022-12-25T18:06:23.068Z,2.77
2022-12-25T18:08:49.847Z,3.20
2022-12-25T18:11:18.110Z,3.23
2022-12-25T18:13:46.312Z,2.83
2022-12-25T18:16:12.916Z,3.33
2022-12-25T18:18:40.383Z,3.37
2022-12-25T18:21:07.946Z,3.97
2022-12-25T18:23:36.170Z,3.00
2022-12-25T18:26:03.686Z,3.70
2022-12-25T18:28:30.231Z,3.43
2022-12-25T18:30:56.760Z,3.73
2022-12-25T18:33:23.588Z,3.30
2022-12-25T18:35:50.343Z,5.27
2022-12-25T18:38:17.046Z,12.00
2022-12-25T18:40:47.643Z,24.83
2022-12-25T18:43:14.917Z,11.37
2022-12-25T18:45:42.164Z,9.37
2022-12-25T18:48:09.442Z,6.00
2022-12-25T18:50:37.945Z,5.97
2022-12-25T18:53:05.664Z,4.50
2022-12-25T18:55:32.262Z,3.80
2022-12-25T18:58:00.197Z,3.90
2022-12-25T19:00:26.806Z,4.03
2022-12-25T19:02:56.092Z,4.00
2022-12-25T19:05:22.780Z,2.60
2022-12-25T19:07:49.317Z,3.10
2022-12-25T19:10:15.955Z,2.50
2022-12-25T19:12:42.468Z,3.07
2022-12-25T19:15:10.988Z,3.40
2022-12-25T19:17:37.553Z,3.20
2022-12-25T19:20:04.656Z,2.97
2022-12-25T19:22:31.193Z,2.70
2022-12-25T19:24:57.781Z,2.50
2022-12-25T19:27:24.314Z,2.53
2022-12-25T19:29:50.807Z,2.63
2022-12-25T19:32:18.663Z,3.27
2022-12-25T19:34:45.207Z,3.30
2022-12-25T19:37:11.760Z,2.50
2022-12-25T19:39:38.287Z,2.43
2022-12-25T19:42:04.876Z,2.87
2022-12-25T19:44:31.384Z,2.93
2022-12-25T19:46:57.908Z,5.13
2022-12-25T19:49:25.798Z,5.77
2022-12-25T19:51:52.315Z,3.40
2022-12-25T19:54:20.287Z,2.40
2022-12-25T19:56:47.942Z,3.67
2022-12-25T19:59:15.082Z,10.23
2022-12-25T20:01:41.760Z,15.03
2022-12-25T20:04:09.421Z,7.57
2022-12-25T20:06:39.722Z,6.23
2022-12-25T20:09:08.238Z,11.13
2022-12-25T20:11:35.930Z,12.17
2022-12-25T20:14:02.593Z,14.93
2022-12-25T20:16:29.250Z,10.80
2022-12-25T20:18:57.488Z,7.70
2022-12-25T20:21:24.583Z,6.63
2022-12-25T20:23:53.396Z,4.50
2022-12-25T20:26:22.767Z,4.17
2022-12-25T20:28:49.452Z,4.90
2022-12-25T20:31:17.664Z,3.00
2022-12-25T20:33:44.844Z,3.53
2022-12-25T20:36:11.959Z,3.53
2022-12-25T20:38:38.805Z,4.00
2022-12-25T20:43:54.789Z,3.10
2022-12-25T20:46:22.251Z,3.40
2022-12-25T20:48:48.927Z,2.47
2022-12-25T20:51:17.349Z,3.60
2022-12-25T20:53:44.245Z,4.23
2022-12-25T20:56:14.463Z,3.10
2022-12-25T20:58:41.908Z,4.47
2022-12-25T21:01:10.898Z,3.60
2022-12-25T21:03:37.773Z,3.77
2022-12-25T21:06:04.860Z,4.13
2022-12-25T21:08:31.454Z,4.13
2022-12-25T21:10:59.705Z,5.50
2022-12-25T21:13:29.940Z,4.67
2022-12-25T21:15:57.249Z,4.47
2022-12-25T21:18:25.820Z,4.40
2022-12-25T21:20:54.817Z,12.03
2022-12-25T21:23:21.378Z,7.43
2022-12-25T21:25:48.467Z,5.63
2022-12-25T21:28:15.299Z,6.47
2022-12-25T21:30:43.503Z,7.10
2022-12-25T21:33:11.629Z,4.90
2022-12-25T21:35:38.655Z,5.97
2022-12-25T21:38:06.395Z,5.00
2022-12-25T21:40:35.451Z,4.70
2022-12-25T21:43:02.370Z,4.73
2022-12-25T21:45:29.290Z,4.60
2022-12-25T21:48:01.956Z,5.27
2022-12-25T21:50:32.585Z,4.03
2022-12-25T21:53:02.654Z,3.10
2022-12-25T21:55:29.211Z,3.20
2022-12-25T21:57:55.696Z,3.10
2022-12-25T22:00:22.255Z,3.20
2022-12-25T22:02:49.006Z,3.40
2022-12-25T22:05:16.952Z,4.30
2022-12-25T22:07:43.443Z,4.10
2022-12-25T22:10:09.957Z,4.33
2022-12-25T22:12:36.442Z,3.60
2022-12-25T22:15:03.908Z,3.17
2022-12-25T22:17:32.657Z,3.30
2022-12-25T22:19:59.316Z,3.17
2022-12-25T22:22:29.476Z,2.20
2022-12-25T22:24:58.121Z,3.07
2022-12-25T22:27:25.515Z,2.47
2022-12-25T22:29:52.299Z,3.70
2022-12-25T22:32:18.858Z,2.90
2022-12-25T22:34:45.367Z,2.40
2022-12-25T22:37:15.012Z,3.03
2022-12-25T22:39:43.534Z,2.37
2022-12-25T22:42:10.953Z,1.90
2022-12-25T22:44:37.725Z,3.07
2022-12-25T22:47:04.536Z,2.23
2022-12-25T22:49:31.201Z,2.87
2022-12-25T22:51:57.818Z,2.00
2022-12-25T22:54:24.944Z,2.10
2022-12-25T22:56:52.902Z,2.73
2022-12-25T22:59:21.358Z,2.00
2022-12-25T23:01:48.432Z,5.13
2022-12-25T23:04:15.218Z,2.90
2022-12-25T23:06:41.743Z,2.80
2022-12-25T23:09:10.945Z,2.23
2022-12-25T23:11:37.916Z,2.03
2022-12-25T23:14:05.811Z,2.33
2022-12-25T23:16:32.584Z,2.13
2022-12-25T23:18:59.530Z,2.27
2022-12-25T23:21:27.303Z,3.00
2022-12-25T23:23:53.812Z,2.50
2022-12-25T23:26:21.294Z,2.03
2022-12-25T23:28:47.809Z,2.40
2022-12-25T23:31:15.822Z,3.07
2022-12-25T23:33:42.417Z,2.50
2022-12-25T23:36:09.258Z,2.40
2022-12-25T23:38:35.785Z,2.10
2022-12-25T23:41:02.404Z,2.00
2022-12-25T23:43:29.070Z,2.10
2022-12-25T23:45:55.590Z,2.90
2022-12-25T23:48:23.553Z,1.93
2022-12-25T23:50:50.060Z,1.80
2022-12-25T23:53:16.574Z,1.87
2022-12-25T23:55:43.127Z,2.30
2022-12-25T23:58:10.231Z,1.87
